sensor_id;sensor_type;location;lat;lon;timestamp;P1;durP1;ratioP1;P2;durP2;ratioP2
32216;SDS011;67098;51.140;4.088;2023-05-08T00:00:24;56.97;;;33.30;;
32216;SDS011;67098;51.140;4.088;2023-05-08T00:02:50;55.92;;;32.30;;
32216;SDS011;67098;51.140;4.088;2023-05-08T00:05:16;60.20;;;34.60;;
32216;SDS011;67098;51.140;4.088;2023-05-08T00:07:42;57.45;;;34.45;;
32216;SDS011;67098;51.140;4.088;2023-05-08T00:10:08;60.75;;;36.08;;
32216;SDS011;67098;51.140;4.088;2023-05-08T00:12:34;66.72;;;37.55;;
32216;SDS011;67098;51.140;4.088;2023-05-08T00:15:00;66.32;;;38.00;;
32216;SDS011;67098;51.140;4.088;2023-05-08T00:17:27;73.10;;;37.67;;
32216;SDS011;67098;51.140;4.088;2023-05-08T00:19:53;70.15;;;39.10;;
32216;SDS011;67098;51.140;4.088;2023-05-08T00:22:19;69.60;;;37.45;;
32216;SDS011;67098;51.140;4.088;2023-05-08T00:24:45;65.65;;;36.72;;
32216;SDS011;67098;51.140;4.088;2023-05-08T00:27:10;67.47;;;37.63;;
32216;SDS011;67098;51.140;4.088;2023-05-08T00:29:36;68.63;;;38.75;;
32216;SDS011;67098;51.140;4.088;2023-05-08T00:32:04;69.15;;;37.83;;
32216;SDS011;67098;51.140;4.088;2023-05-08T00:34:30;68.93;;;39.83;;
32216;SDS011;67098;51.140;4.088;2023-05-08T00:36:56;72.60;;;40.65;;
32216;SDS011;67098;51.140;4.088;2023-05-08T00:39:22;71.88;;;41.83;;
32216;SDS011;67098;51.140;4.088;2023-05-08T00:41:47;74.82;;;41.45;;
32216;SDS011;67098;51.140;4.088;2023-05-08T00:44:13;72.97;;;40.67;;
32216;SDS011;67098;51.140;4.088;2023-05-08T00:46:39;81.32;;;43.83;;
32216;SDS011;67098;51.140;4.088;2023-05-08T00:49:06;80.60;;;42.88;;
32216;SDS011;67098;51.140;4.088;2023-05-08T00:51:34;82.20;;;44.38;;
32216;SDS011;67098;51.140;4.088;2023-05-08T00:54:00;77.82;;;42.40;;
32216;SDS011;67098;51.140;4.088;2023-05-08T00:56:26;69.63;;;41.22;;
32216;SDS011;67098;51.140;4.088;2023-05-08T00:58:53;80.22;;;42.05;;
32216;SDS011;67098;51.140;4.088;2023-05-08T01:01:19;78.28;;;42.70;;
32216;SDS011;67098;51.140;4.088;2023-05-08T01:03:45;89.03;;;45.80;;
32216;SDS011;67098;51.140;4.088;2023-05-08T01:06:11;84.30;;;43.63;;
32216;SDS011;67098;51.140;4.088;2023-05-08T01:08:37;84.80;;;45.47;;
32216;SDS011;67098;51.140;4.088;2023-05-08T01:25:49;81.35;;;44.85;;
32216;SDS011;67098;51.140;4.088;2023-05-08T01:34:31;75.03;;;41.50;;
32216;SDS011;67098;51.140;4.088;2023-05-08T01:37:10;81.55;;;42.80;;
32216;SDS011;67098;51.140;4.088;2023-05-08T01:44:51;81.70;;;41.28;;
32216;SDS011;67098;51.140;4.088;2023-05-08T01:47:23;80.40;;;42.78;;
32216;SDS011;67098;51.140;4.088;2023-05-08T01:49:58;83.28;;;42.67;;
32216;SDS011;67098;51.140;4.088;2023-05-08T01:52:41;69.70;;;40.92;;
32216;SDS011;67098;51.140;4.088;2023-05-08T01:55:11;80.50;;;41.83;;
32216;SDS011;67098;51.140;4.088;2023-05-08T01:57:46;79.10;;;42.13;;
32216;SDS011;67098;51.140;4.088;2023-05-08T02:00:13;72.15;;;40.92;;
32216;SDS011;67098;51.140;4.088;2023-05-08T02:02:43;76.43;;;41.85;;
32216;SDS011;67098;51.140;4.088;2023-05-08T02:05:10;77.35;;;40.53;;
32216;SDS011;67098;51.140;4.088;2023-05-08T02:07:38;78.03;;;40.47;;
32216;SDS011;67098;51.140;4.088;2023-05-08T02:10:05;77.60;;;41.78;;
32216;SDS011;67098;51.140;4.088;2023-05-08T02:12:32;81.15;;;43.10;;
32216;SDS011;67098;51.140;4.088;2023-05-08T02:15:00;79.10;;;43.25;;
32216;SDS011;67098;51.140;4.088;2023-05-08T02:17:27;86.68;;;43.78;;
32216;SDS011;67098;51.140;4.088;2023-05-08T02:19:55;81.07;;;41.95;;
32216;SDS011;67098;51.140;4.088;2023-05-08T02:22:23;90.05;;;45.20;;
32216;SDS011;67098;51.140;4.088;2023-05-08T02:24:50;85.90;;;46.30;;
32216;SDS011;67098;51.140;4.088;2023-05-08T02:27:22;96.25;;;50.33;;
32216;SDS011;67098;51.140;4.088;2023-05-08T02:29:51;97.88;;;48.70;;
32216;SDS011;67098;51.140;4.088;2023-05-08T02:32:19;91.60;;;47.67;;
32216;SDS011;67098;51.140;4.088;2023-05-08T02:34:47;98.38;;;48.85;;
32216;SDS011;67098;51.140;4.088;2023-05-08T02:37:14;89.70;;;46.03;;
32216;SDS011;67098;51.140;4.088;2023-05-08T02:39:42;83.35;;;44.97;;
32216;SDS011;67098;51.140;4.088;2023-05-08T02:42:08;81.18;;;45.10;;
32216;SDS011;67098;51.140;4.088;2023-05-08T02:44:34;85.03;;;44.40;;
32216;SDS011;67098;51.140;4.088;2023-05-08T02:47:18;87.70;;;45.97;;
32216;SDS011;67098;51.140;4.088;2023-05-08T02:49:49;91.00;;;47.63;;
32216;SDS011;67098;51.140;4.088;2023-05-08T02:52:22;83.75;;;46.10;;
32216;SDS011;67098;51.140;4.088;2023-05-08T02:58:33;84.82;;;45.83;;
32216;SDS011;67098;51.140;4.088;2023-05-08T03:00:40;95.30;;;49.40;;
32216;SDS011;67098;51.140;4.088;2023-05-08T03:03:21;96.30;;;49.17;;
32216;SDS011;67098;51.140;4.088;2023-05-08T03:05:53;87.97;;;45.35;;
32216;SDS011;67098;51.140;4.088;2023-05-08T03:08:27;79.85;;;41.50;;
32216;SDS011;67098;51.140;4.088;2023-05-08T03:10:56;77.72;;;41.67;;
32216;SDS011;67098;51.140;4.088;2023-05-08T03:13:27;75.15;;;40.80;;
32216;SDS011;67098;51.140;4.088;2023-05-08T03:15:59;73.97;;;39.97;;
32216;SDS011;67098;51.140;4.088;2023-05-08T03:18:31;72.28;;;40.55;;
32216;SDS011;67098;51.140;4.088;2023-05-08T03:21:00;76.13;;;40.70;;
32216;SDS011;67098;51.140;4.088;2023-05-08T03:23:29;74.78;;;40.95;;
32216;SDS011;67098;51.140;4.088;2023-05-08T03:25:58;74.80;;;41.53;;
32216;SDS011;67098;51.140;4.088;2023-05-08T03:28:25;74.00;;;40.97;;
32216;SDS011;67098;51.140;4.088;2023-05-08T03:30:52;65.13;;;39.38;;
32216;SDS011;67098;51.140;4.088;2023-05-08T03:33:20;67.10;;;38.72;;
32216;SDS011;67098;51.140;4.088;2023-05-08T03:35:47;69.38;;;38.88;;
32216;SDS011;67098;51.140;4.088;2023-05-08T03:38:15;65.22;;;38.80;;
32216;SDS011;67098;51.140;4.088;2023-05-08T03:40:41;67.28;;;38.20;;
32216;SDS011;67098;51.140;4.088;2023-05-08T03:43:07;70.28;;;39.42;;
32216;SDS011;67098;51.140;4.088;2023-05-08T03:45:34;71.20;;;39.90;;
32216;SDS011;67098;51.140;4.088;2023-05-08T03:48:02;67.90;;;39.05;;
32216;SDS011;67098;51.140;4.088;2023-05-08T03:50:33;68.95;;;39.40;;
32216;SDS011;67098;51.140;4.088;2023-05-08T03:53:00;67.05;;;38.42;;
32216;SDS011;67098;51.140;4.088;2023-05-08T03:55:26;61.17;;;36.75;;
32216;SDS011;67098;51.140;4.088;2023-05-08T04:09:00;62.70;;;37.35;;
32216;SDS011;67098;51.140;4.088;2023-05-08T04:11:41;70.18;;;38.50;;
32216;SDS011;67098;51.140;4.088;2023-05-08T04:14:17;63.50;;;36.78;;
32216;SDS011;67098;51.140;4.088;2023-05-08T04:16:49;64.88;;;35.33;;
32216;SDS011;67098;51.140;4.088;2023-05-08T04:19:27;61.05;;;36.25;;
32216;SDS011;67098;51.140;4.088;2023-05-08T04:21:57;66.47;;;37.58;;
32216;SDS011;67098;51.140;4.088;2023-05-08T04:24:27;68.43;;;38.20;;
32216;SDS011;67098;51.140;4.088;2023-05-08T04:26:57;77.28;;;40.90;;
32216;SDS011;67098;51.140;4.088;2023-05-08T04:29:24;85.03;;;42.40;;
32216;SDS011;67098;51.140;4.088;2023-05-08T04:31:50;89.65;;;42.10;;
32216;SDS011;67098;51.140;4.088;2023-05-08T04:34:15;89.60;;;43.50;;
32216;SDS011;67098;51.140;4.088;2023-05-08T04:36:42;79.72;;;40.17;;
32216;SDS011;67098;51.140;4.088;2023-05-08T04:39:08;85.57;;;40.75;;
32216;SDS011;67098;51.140;4.088;2023-05-08T04:41:34;100.88;;;42.88;;
32216;SDS011;67098;51.140;4.088;2023-05-08T04:43:59;106.63;;;45.35;;
32216;SDS011;67098;51.140;4.088;2023-05-08T04:46:26;99.32;;;44.15;;
32216;SDS011;67098;51.140;4.088;2023-05-08T04:48:52;112.32;;;45.13;;
32216;SDS011;67098;51.140;4.088;2023-05-08T04:51:18;116.35;;;46.38;;
32216;SDS011;67098;51.140;4.088;2023-05-08T04:53:43;118.80;;;47.80;;
32216;SDS011;67098;51.140;4.088;2023-05-08T04:56:09;130.00;;;51.35;;
32216;SDS011;67098;51.140;4.088;2023-05-08T04:58:35;137.73;;;52.40;;
32216;SDS011;67098;51.140;4.088;2023-05-08T05:01:01;158.93;;;56.08;;
32216;SDS011;67098;51.140;4.088;2023-05-08T05:03:28;148.18;;;55.00;;
32216;SDS011;67098;51.140;4.088;2023-05-08T05:05:57;142.30;;;53.08;;
32216;SDS011;67098;51.140;4.088;2023-05-08T05:08:24;139.95;;;52.90;;
32216;SDS011;67098;51.140;4.088;2023-05-08T05:10:50;142.40;;;55.42;;
32216;SDS011;67098;51.140;4.088;2023-05-08T05:13:16;148.57;;;58.65;;
32216;SDS011;67098;51.140;4.088;2023-05-08T05:15:42;160.57;;;63.38;;
32216;SDS011;67098;51.140;4.088;2023-05-08T05:18:08;174.40;;;69.10;;
32216;SDS011;67098;51.140;4.088;2023-05-08T05:20:33;179.90;;;69.97;;
32216;SDS011;67098;51.140;4.088;2023-05-08T05:22:59;174.18;;;71.05;;
32216;SDS011;67098;51.140;4.088;2023-05-08T05:25:25;171.85;;;71.20;;
32216;SDS011;67098;51.140;4.088;2023-05-08T05:27:50;173.35;;;70.25;;
32216;SDS011;67098;51.140;4.088;2023-05-08T05:30:16;165.38;;;71.65;;
32216;SDS011;67098;51.140;4.088;2023-05-08T05:32:42;170.77;;;71.93;;
32216;SDS011;67098;51.140;4.088;2023-05-08T05:35:08;151.80;;;65.45;;
32216;SDS011;67098;51.140;4.088;2023-05-08T05:37:34;144.85;;;62.03;;
32216;SDS011;67098;51.140;4.088;2023-05-08T05:40:00;126.10;;;56.20;;
32216;SDS011;67098;51.140;4.088;2023-05-08T05:42:26;123.78;;;57.13;;
32216;SDS011;67098;51.140;4.088;2023-05-08T05:44:52;110.38;;;52.78;;
32216;SDS011;67098;51.140;4.088;2023-05-08T05:47:18;115.63;;;53.95;;
32216;SDS011;67098;51.140;4.088;2023-05-08T05:49:43;120.45;;;54.25;;
32216;SDS011;67098;51.140;4.088;2023-05-08T05:52:12;109.88;;;49.88;;
32216;SDS011;67098;51.140;4.088;2023-05-08T05:54:38;96.32;;;47.58;;
32216;SDS011;67098;51.140;4.088;2023-05-08T05:57:05;96.00;;;45.92;;
32216;SDS011;67098;51.140;4.088;2023-05-08T05:59:31;96.55;;;46.28;;
32216;SDS011;67098;51.140;4.088;2023-05-08T06:01:57;87.43;;;43.47;;
32216;SDS011;67098;51.140;4.088;2023-05-08T06:04:23;90.13;;;43.10;;
32216;SDS011;67098;51.140;4.088;2023-05-08T06:06:49;83.90;;;41.95;;
32216;SDS011;67098;51.140;4.088;2023-05-08T06:09:15;83.90;;;41.17;;
32216;SDS011;67098;51.140;4.088;2023-05-08T06:11:41;82.80;;;41.10;;
32216;SDS011;67098;51.140;4.088;2023-05-08T06:14:06;81.70;;;42.92;;
32216;SDS011;67098;51.140;4.088;2023-05-08T06:16:32;85.65;;;40.53;;
32216;SDS011;67098;51.140;4.088;2023-05-08T06:18:59;83.00;;;40.42;;
32216;SDS011;67098;51.140;4.088;2023-05-08T06:21:25;80.05;;;40.47;;
32216;SDS011;67098;51.140;4.088;2023-05-08T06:23:52;76.32;;;38.67;;
32216;SDS011;67098;51.140;4.088;2023-05-08T06:26:18;73.15;;;37.33;;
32216;SDS011;67098;51.140;4.088;2023-05-08T06:28:45;67.15;;;32.97;;
32216;SDS011;67098;51.140;4.088;2023-05-08T06:31:11;61.45;;;32.38;;
32216;SDS011;67098;51.140;4.088;2023-05-08T06:33:36;64.43;;;31.00;;
32216;SDS011;67098;51.140;4.088;2023-05-08T06:36:05;58.00;;;30.25;;
32216;SDS011;67098;51.140;4.088;2023-05-08T06:38:31;61.55;;;29.33;;
32216;SDS011;67098;51.140;4.088;2023-05-08T06:40:57;66.55;;;29.05;;
32216;SDS011;67098;51.140;4.088;2023-05-08T06:43:22;65.43;;;29.65;;
32216;SDS011;67098;51.140;4.088;2023-05-08T06:45:48;64.28;;;30.15;;
32216;SDS011;67098;51.140;4.088;2023-05-08T06:48:14;60.45;;;29.55;;
32216;SDS011;67098;51.140;4.088;2023-05-08T06:50:40;60.55;;;29.42;;
32216;SDS011;67098;51.140;4.088;2023-05-08T06:53:06;57.33;;;29.13;;
32216;SDS011;67098;51.140;4.088;2023-05-08T06:55:32;63.67;;;30.17;;
32216;SDS011;67098;51.140;4.088;2023-05-08T06:57:58;59.97;;;29.10;;
32216;SDS011;67098;51.140;4.088;2023-05-08T07:00:24;66.10;;;30.15;;
32216;SDS011;67098;51.140;4.088;2023-05-08T07:02:50;64.07;;;29.45;;
32216;SDS011;67098;51.140;4.088;2023-05-08T07:05:16;69.38;;;31.58;;
32216;SDS011;67098;51.140;4.088;2023-05-08T07:07:43;72.57;;;31.08;;
32216;SDS011;67098;51.140;4.088;2023-05-08T07:10:09;67.85;;;30.00;;
32216;SDS011;67098;51.140;4.088;2023-05-08T07:12:35;71.75;;;31.65;;
32216;SDS011;67098;51.140;4.088;2023-05-08T07:15:01;70.18;;;31.98;;
32216;SDS011;67098;51.140;4.088;2023-05-08T07:17:27;69.35;;;32.40;;
32216;SDS011;67098;51.140;4.088;2023-05-08T07:19:54;65.65;;;30.75;;
32216;SDS011;67098;51.140;4.088;2023-05-08T07:22:20;64.75;;;30.77;;
32216;SDS011;67098;51.140;4.088;2023-05-08T07:24:45;68.10;;;32.65;;
32216;SDS011;67098;51.140;4.088;2023-05-08T07:27:11;69.68;;;33.10;;
32216;SDS011;67098;51.140;4.088;2023-05-08T07:29:38;63.47;;;31.45;;
32216;SDS011;67098;51.140;4.088;2023-05-08T07:32:08;70.85;;;32.05;;
32216;SDS011;67098;51.140;4.088;2023-05-08T07:34:34;68.00;;;30.65;;
32216;SDS011;67098;51.140;4.088;2023-05-08T07:36:59;70.60;;;31.55;;
32216;SDS011;67098;51.140;4.088;2023-05-08T07:39:25;69.60;;;29.88;;
32216;SDS011;67098;51.140;4.088;2023-05-08T07:41:51;66.95;;;29.55;;
32216;SDS011;67098;51.140;4.088;2023-05-08T07:44:16;71.10;;;30.27;;
32216;SDS011;67098;51.140;4.088;2023-05-08T07:46:42;74.07;;;29.58;;
32216;SDS011;67098;51.140;4.088;2023-05-08T07:49:08;63.58;;;27.38;;
32216;SDS011;67098;51.140;4.088;2023-05-08T07:51:33;70.28;;;29.23;;
32216;SDS011;67098;51.140;4.088;2023-05-08T07:53:59;65.82;;;28.27;;
32216;SDS011;67098;51.140;4.088;2023-05-08T07:56:25;69.05;;;29.33;;
32216;SDS011;67098;51.140;4.088;2023-05-08T07:58:51;66.35;;;27.75;;
32216;SDS011;67098;51.140;4.088;2023-05-08T08:01:17;61.60;;;27.95;;
32216;SDS011;67098;51.140;4.088;2023-05-08T08:03:43;63.47;;;27.95;;
32216;SDS011;67098;51.140;4.088;2023-05-08T08:06:10;54.42;;;25.45;;
32216;SDS011;67098;51.140;4.088;2023-05-08T08:08:36;60.40;;;26.58;;
32216;SDS011;67098;51.140;4.088;2023-05-08T08:11:01;55.47;;;24.98;;
32216;SDS011;67098;51.140;4.088;2023-05-08T08:13:27;54.65;;;26.35;;
32216;SDS011;67098;51.140;4.088;2023-05-08T08:15:53;64.07;;;27.52;;
32216;SDS011;67098;51.140;4.088;2023-05-08T08:18:18;65.75;;;27.33;;
32216;SDS011;67098;51.140;4.088;2023-05-08T08:20:44;55.78;;;27.38;;
32216;SDS011;67098;51.140;4.088;2023-05-08T08:23:10;58.53;;;26.17;;
32216;SDS011;67098;51.140;4.088;2023-05-08T08:25:35;58.38;;;27.08;;
32216;SDS011;67098;51.140;4.088;2023-05-08T08:28:01;62.63;;;28.27;;
32216;SDS011;67098;51.140;4.088;2023-05-08T08:30:27;56.58;;;26.52;;
32216;SDS011;67098;51.140;4.088;2023-05-08T08:32:52;66.05;;;28.63;;
32216;SDS011;67098;51.140;4.088;2023-05-08T08:35:18;62.05;;;28.77;;
32216;SDS011;67098;51.140;4.088;2023-05-08T08:37:44;65.15;;;28.88;;
32216;SDS011;67098;51.140;4.088;2023-05-08T08:40:09;68.55;;;30.20;;
32216;SDS011;67098;51.140;4.088;2023-05-08T08:42:35;66.85;;;31.00;;
32216;SDS011;67098;51.140;4.088;2023-05-08T08:45:01;67.45;;;30.42;;
32216;SDS011;67098;51.140;4.088;2023-05-08T08:47:27;67.68;;;31.02;;
32216;SDS011;67098;51.140;4.088;2023-05-08T08:49:53;66.50;;;30.85;;
32216;SDS011;67098;51.140;4.088;2023-05-08T08:52:36;66.82;;;31.35;;
32216;SDS011;67098;51.140;4.088;2023-05-08T08:55:07;65.60;;;28.90;;
32216;SDS011;67098;51.140;4.088;2023-05-08T08:57:38;67.17;;;31.37;;
32216;SDS011;67098;51.140;4.088;2023-05-08T09:00:19;59.40;;;29.48;;
32216;SDS011;67098;51.140;4.088;2023-05-08T09:02:47;60.45;;;29.02;;
32216;SDS011;67098;51.140;4.088;2023-05-08T09:05:13;56.28;;;28.95;;
32216;SDS011;67098;51.140;4.088;2023-05-08T09:07:39;57.75;;;28.73;;
32216;SDS011;67098;51.140;4.088;2023-05-08T09:10:05;55.13;;;28.98;;
32216;SDS011;67098;51.140;4.088;2023-05-08T09:12:32;59.05;;;29.05;;
32216;SDS011;67098;51.140;4.088;2023-05-08T09:14:58;59.40;;;28.92;;
32216;SDS011;67098;51.140;4.088;2023-05-08T09:17:24;58.65;;;28.55;;
32216;SDS011;67098;51.140;4.088;2023-05-08T09:19:50;59.85;;;28.40;;
32216;SDS011;67098;51.140;4.088;2023-05-08T09:22:16;54.15;;;27.90;;
32216;SDS011;67098;51.140;4.088;2023-05-08T09:24:55;61.97;;;29.02;;
32216;SDS011;67098;51.140;4.088;2023-05-08T09:27:23;64.28;;;29.73;;
32216;SDS011;67098;51.140;4.088;2023-05-08T09:29:59;59.47;;;28.40;;
32216;SDS011;67098;51.140;4.088;2023-05-08T09:32:26;57.60;;;29.88;;
32216;SDS011;67098;51.140;4.088;2023-05-08T09:34:53;56.42;;;29.08;;
32216;SDS011;67098;51.140;4.088;2023-05-08T09:37:18;64.20;;;30.90;;
32216;SDS011;67098;51.140;4.088;2023-05-08T09:39:44;62.78;;;29.73;;
32216;SDS011;67098;51.140;4.088;2023-05-08T09:42:12;65.88;;;29.75;;
32216;SDS011;67098;51.140;4.088;2023-05-08T09:44:56;59.65;;;28.90;;
32216;SDS011;67098;51.140;4.088;2023-05-08T09:47:22;59.30;;;29.58;;
32216;SDS011;67098;51.140;4.088;2023-05-08T09:52:24;59.67;;;30.08;;
32216;SDS011;67098;51.140;4.088;2023-05-08T09:54:57;55.13;;;28.50;;
32216;SDS011;67098;51.140;4.088;2023-05-08T09:57:25;55.63;;;28.05;;
32216;SDS011;67098;51.140;4.088;2023-05-08T09:59:59;51.65;;;28.15;;
32216;SDS011;67098;51.140;4.088;2023-05-08T10:02:25;50.92;;;25.83;;
32216;SDS011;67098;51.140;4.088;2023-05-08T10:04:51;50.20;;;26.75;;
32216;SDS011;67098;51.140;4.088;2023-05-08T10:07:26;48.95;;;25.77;;
32216;SDS011;67098;51.140;4.088;2023-05-08T10:12:25;44.08;;;24.90;;
32216;SDS011;67098;51.140;4.088;2023-05-08T10:14:51;45.63;;;24.42;;
32216;SDS011;67098;51.140;4.088;2023-05-08T10:17:19;46.83;;;24.20;;
32216;SDS011;67098;51.140;4.088;2023-05-08T10:20:09;43.83;;;24.23;;
32216;SDS011;67098;51.140;4.088;2023-05-08T10:22:38;44.72;;;24.75;;
32216;SDS011;67098;51.140;4.088;2023-05-08T10:25:13;44.20;;;25.17;;
32216;SDS011;67098;51.140;4.088;2023-05-08T10:27:52;43.38;;;23.58;;
32216;SDS011;67098;51.140;4.088;2023-05-08T10:30:40;46.15;;;24.13;;
32216;SDS011;67098;51.140;4.088;2023-05-08T10:33:11;42.05;;;23.85;;
32216;SDS011;67098;51.140;4.088;2023-05-08T10:35:39;44.38;;;23.95;;
32216;SDS011;67098;51.140;4.088;2023-05-08T10:38:08;47.25;;;25.38;;
32216;SDS011;67098;51.140;4.088;2023-05-08T10:40:34;44.85;;;24.20;;
32216;SDS011;67098;51.140;4.088;2023-05-08T10:43:01;43.80;;;22.83;;
32216;SDS011;67098;51.140;4.088;2023-05-08T10:45:27;43.10;;;22.90;;
32216;SDS011;67098;51.140;4.088;2023-05-08T10:48:07;35.65;;;21.00;;
32216;SDS011;67098;51.140;4.088;2023-05-08T10:56:00;38.60;;;20.60;;
32216;SDS011;67098;51.140;4.088;2023-05-08T10:58:33;38.28;;;20.60;;
32216;SDS011;67098;51.140;4.088;2023-05-08T11:03:42;35.50;;;20.05;;
32216;SDS011;67098;51.140;4.088;2023-05-08T11:06:09;34.60;;;20.80;;
32216;SDS011;67098;51.140;4.088;2023-05-08T11:08:42;39.17;;;20.88;;
32216;SDS011;67098;51.140;4.088;2023-05-08T11:11:15;36.47;;;21.02;;
32216;SDS011;67098;51.140;4.088;2023-05-08T11:13:48;37.10;;;20.00;;
32216;SDS011;67098;51.140;4.088;2023-05-08T11:16:17;42.95;;;21.00;;
32216;SDS011;67098;51.140;4.088;2023-05-08T11:19:16;44.05;;;21.75;;
32216;SDS011;67098;51.140;4.088;2023-05-08T11:24:46;42.45;;;21.83;;
32216;SDS011;67098;51.140;4.088;2023-05-08T11:27:13;43.33;;;21.08;;
32216;SDS011;67098;51.140;4.088;2023-05-08T11:29:39;45.63;;;22.17;;
32216;SDS011;67098;51.140;4.088;2023-05-08T11:32:05;43.50;;;22.33;;
32216;SDS011;67098;51.140;4.088;2023-05-08T11:37:10;48.20;;;23.02;;
32216;SDS011;67098;51.140;4.088;2023-05-08T11:39:40;44.42;;;22.60;;
32216;SDS011;67098;51.140;4.088;2023-05-08T11:45:08;37.58;;;20.75;;
32216;SDS011;67098;51.140;4.088;2023-05-08T11:47:38;40.80;;;20.65;;
32216;SDS011;67098;51.140;4.088;2023-05-08T11:50:09;38.97;;;19.48;;
32216;SDS011;67098;51.140;4.088;2023-05-08T11:52:36;41.58;;;19.92;;
32216;SDS011;67098;51.140;4.088;2023-05-08T11:55:04;36.42;;;21.15;;
32216;SDS011;67098;51.140;4.088;2023-05-08T11:57:31;37.67;;;19.08;;
32216;SDS011;67098;51.140;4.088;2023-05-08T11:59:58;34.33;;;18.52;;
32216;SDS011;67098;51.140;4.088;2023-05-08T12:05:05;29.05;;;16.83;;
32216;SDS011;67098;51.140;4.088;2023-05-08T12:07:31;30.40;;;17.83;;
32216;SDS011;67098;51.140;4.088;2023-05-08T12:09:59;27.30;;;16.95;;
32216;SDS011;67098;51.140;4.088;2023-05-08T12:12:36;27.88;;;16.98;;
32216;SDS011;67098;51.140;4.088;2023-05-08T12:15:06;27.58;;;16.73;;
32216;SDS011;67098;51.140;4.088;2023-05-08T12:17:33;25.40;;;13.85;;
32216;SDS011;67098;51.140;4.088;2023-05-08T12:20:15;26.20;;;14.85;;
32216;SDS011;67098;51.140;4.088;2023-05-08T12:22:48;25.83;;;16.02;;
32216;SDS011;67098;51.140;4.088;2023-05-08T12:25:15;25.33;;;15.25;;
32216;SDS011;67098;51.140;4.088;2023-05-08T12:27:41;27.75;;;15.32;;
32216;SDS011;67098;51.140;4.088;2023-05-08T12:30:09;24.90;;;15.05;;
32216;SDS011;67098;51.140;4.088;2023-05-08T12:32:37;23.95;;;14.43;;
32216;SDS011;67098;51.140;4.088;2023-05-08T12:35:07;24.98;;;14.55;;
32216;SDS011;67098;51.140;4.088;2023-05-08T12:37:34;20.67;;;13.47;;
32216;SDS011;67098;51.140;4.088;2023-05-08T12:40:01;23.33;;;15.55;;
32216;SDS011;67098;51.140;4.088;2023-05-08T12:42:43;22.65;;;13.73;;
32216;SDS011;67098;51.140;4.088;2023-05-08T12:45:19;19.80;;;13.40;;
32216;SDS011;67098;51.140;4.088;2023-05-08T12:47:50;19.95;;;11.70;;
32216;SDS011;67098;51.140;4.088;2023-05-08T12:50:18;23.23;;;13.30;;
32216;SDS011;67098;51.140;4.088;2023-05-08T12:52:49;20.10;;;12.80;;
32216;SDS011;67098;51.140;4.088;2023-05-08T12:58:09;24.65;;;14.15;;
32216;SDS011;67098;51.140;4.088;2023-05-08T13:00:37;22.80;;;12.80;;
32216;SDS011;67098;51.140;4.088;2023-05-08T13:03:08;22.98;;;13.13;;
32216;SDS011;67098;51.140;4.088;2023-05-08T13:05:36;17.83;;;11.90;;
32216;SDS011;67098;51.140;4.088;2023-05-08T13:08:05;18.38;;;11.07;;
32216;SDS011;67098;51.140;4.088;2023-05-08T13:10:54;21.80;;;10.23;;
32216;SDS011;67098;51.140;4.088;2023-05-08T13:13:23;16.38;;;10.00;;
32216;SDS011;67098;51.140;4.088;2023-05-08T13:15:50;13.20;;;8.05;;
32216;SDS011;67098;51.140;4.088;2023-05-08T13:18:18;19.42;;;9.55;;
32216;SDS011;67098;51.140;4.088;2023-05-08T13:20:45;12.48;;;8.23;;
32216;SDS011;67098;51.140;4.088;2023-05-08T13:23:11;17.45;;;10.02;;
32216;SDS011;67098;51.140;4.088;2023-05-08T13:25:38;15.75;;;10.23;;
32216;SDS011;67098;51.140;4.088;2023-05-08T13:28:05;13.65;;;8.85;;
32216;SDS011;67098;51.140;4.088;2023-05-08T13:30:32;18.85;;;11.43;;
32216;SDS011;67098;51.140;4.088;2023-05-08T13:32:58;21.25;;;14.02;;
32216;SDS011;67098;51.140;4.088;2023-05-08T13:35:24;20.38;;;12.63;;
32216;SDS011;67098;51.140;4.088;2023-05-08T13:37:52;22.40;;;12.95;;
32216;SDS011;67098;51.140;4.088;2023-05-08T13:40:18;23.48;;;13.75;;
32216;SDS011;67098;51.140;4.088;2023-05-08T13:42:44;23.48;;;14.88;;
32216;SDS011;67098;51.140;4.088;2023-05-08T13:45:10;27.40;;;16.63;;
32216;SDS011;67098;51.140;4.088;2023-05-08T13:47:38;29.58;;;17.65;;
32216;SDS011;67098;51.140;4.088;2023-05-08T13:50:05;28.55;;;17.38;;
32216;SDS011;67098;51.140;4.088;2023-05-08T13:52:31;28.27;;;17.55;;
32216;SDS011;67098;51.140;4.088;2023-05-08T13:54:57;31.05;;;18.10;;
32216;SDS011;67098;51.140;4.088;2023-05-08T13:57:22;31.38;;;18.08;;
32216;SDS011;67098;51.140;4.088;2023-05-08T13:59:49;31.00;;;18.90;;
32216;SDS011;67098;51.140;4.088;2023-05-08T14:02:14;28.67;;;18.00;;
32216;SDS011;67098;51.140;4.088;2023-05-08T14:04:40;30.75;;;18.83;;
32216;SDS011;67098;51.140;4.088;2023-05-08T14:07:06;29.67;;;18.70;;
32216;SDS011;67098;51.140;4.088;2023-05-08T14:09:32;32.33;;;18.23;;
32216;SDS011;67098;51.140;4.088;2023-05-08T14:11:57;26.98;;;17.80;;
32216;SDS011;67098;51.140;4.088;2023-05-08T14:14:23;24.55;;;17.10;;
32216;SDS011;67098;51.140;4.088;2023-05-08T14:16:50;25.27;;;16.88;;
32216;SDS011;67098;51.140;4.088;2023-05-08T14:19:16;26.23;;;17.10;;
32216;SDS011;67098;51.140;4.088;2023-05-08T14:21:45;26.63;;;16.70;;
32216;SDS011;67098;51.140;4.088;2023-05-08T14:24:10;27.55;;;16.15;;
32216;SDS011;67098;51.140;4.088;2023-05-08T14:26:36;24.30;;;15.68;;
32216;SDS011;67098;51.140;4.088;2023-05-08T14:29:02;19.88;;;14.27;;
32216;SDS011;67098;51.140;4.088;2023-05-08T14:31:28;23.25;;;16.00;;
32216;SDS011;67098;51.140;4.088;2023-05-08T14:33:54;21.88;;;15.02;;
32216;SDS011;67098;51.140;4.088;2023-05-08T14:36:20;24.08;;;15.05;;
32216;SDS011;67098;51.140;4.088;2023-05-08T14:38:46;23.15;;;14.60;;
32216;SDS011;67098;51.140;4.088;2023-05-08T14:41:11;22.30;;;14.30;;
32216;SDS011;67098;51.140;4.088;2023-05-08T14:43:37;20.45;;;14.60;;
32216;SDS011;67098;51.140;4.088;2023-05-08T14:46:03;22.77;;;15.27;;
32216;SDS011;67098;51.140;4.088;2023-05-08T14:48:29;19.55;;;13.80;;
32216;SDS011;67098;51.140;4.088;2023-05-08T14:50:57;25.30;;;14.98;;
32216;SDS011;67098;51.140;4.088;2023-05-08T14:53:23;24.63;;;15.07;;
32216;SDS011;67098;51.140;4.088;2023-05-08T14:55:49;29.67;;;15.32;;
32216;SDS011;67098;51.140;4.088;2023-05-08T14:58:14;22.42;;;14.43;;
32216;SDS011;67098;51.140;4.088;2023-05-08T15:00:40;24.45;;;14.85;;
32216;SDS011;67098;51.140;4.088;2023-05-08T15:03:06;22.02;;;13.73;;
32216;SDS011;67098;51.140;4.088;2023-05-08T15:05:31;19.63;;;13.07;;
32216;SDS011;67098;51.140;4.088;2023-05-08T15:07:57;21.23;;;12.82;;
32216;SDS011;67098;51.140;4.088;2023-05-08T15:10:23;24.67;;;14.15;;
32216;SDS011;67098;51.140;4.088;2023-05-08T15:12:49;19.08;;;12.75;;
32216;SDS011;67098;51.140;4.088;2023-05-08T15:15:14;18.77;;;12.48;;
32216;SDS011;67098;51.140;4.088;2023-05-08T15:17:40;21.35;;;11.88;;
32216;SDS011;67098;51.140;4.088;2023-05-08T15:20:06;19.77;;;12.43;;
32216;SDS011;67098;51.140;4.088;2023-05-08T15:22:33;18.50;;;12.02;;
32216;SDS011;67098;51.140;4.088;2023-05-08T15:24:58;16.63;;;11.52;;
32216;SDS011;67098;51.140;4.088;2023-05-08T15:27:27;20.05;;;13.38;;
32216;SDS011;67098;51.140;4.088;2023-05-08T15:29:53;25.77;;;16.58;;
32216;SDS011;67098;51.140;4.088;2023-05-08T15:32:19;24.88;;;16.15;;